Time;durP1;ratioP1;P1;durP2;ratioP2;P2;SDS_P1;SDS_P2;PMS_P1;PMS_P2;Temp;Humidity;BMP_temperature;BMP_pressure;BME280_temperature;BME280_humidity;BME280_pressure;Samples;Min_cycle;Max_cycle;Signal;HPM_P1;HPM_P2
2023/07/07 00:01:40;;;;;;;;;;;;;;;18.20;53.32;98522.22;7373224;19;19919;-69
2023/07/07 00:04:07;;;;;;;;;;;;;;;18.07;54.15;98530.22;7373429;19;19957;-69
2023/07/07 00:06:34;;;;;;;;;;;;;;;18.12;54.43;98525.91;7374908;19;19915;-69
2023/07/07 00:09:02;;;;;;;;;;;;;;;18.05;54.77;98530.41;7374407;19;19926;-69
2023/07/07 00:11:29;;;;;;;;;;;;;;;17.98;54.83;98541.09;7372014;19;19923;-70
2023/07/07 00:13:57;;;;;;;;;;;;;;;17.86;55.31;98536.50;7375437;19;19939;-69
2023/07/07 00:16:27;;;;;;;;;;;;;;;17.96;54.87;98540.47;7376076;19;19918;-69
2023/07/07 00:18:54;;;;;;;;;;;;;;;17.77;55.15;98535.78;7369647;19;19922;-69
2023/07/07 00:21:24;;;;;;;;;;;;;;;17.78;55.96;98526.75;7371714;19;19923;-69
2023/07/07 00:23:53;;;;;;;;;;;;;;;17.33;56.46;98542.34;7376241;19;19927;-69
2023/07/07 00:26:20;;;;;;;;;;;;;;;17.30;57.47;98540.06;7375655;19;20007;-70
2023/07/07 00:28:47;;;;;;;;;;;;;;;17.45;58.00;98538.06;7376170;19;19927;-69
2023/07/07 00:31:14;;;;;;;;;;;;;;;17.41;57.30;98544.84;7374844;19;19911;-70
2023/07/07 00:33:41;;;;;;;;;;;;;;;17.53;56.40;98537.09;7372778;19;19930;-69
2023/07/07 00:36:08;;;;;;;;;;;;;;;17.56;56.42;98536.69;7368358;19;19983;-70
2023/07/07 00:38:35;;;;;;;;;;;;;;;17.40;57.11;98539.69;7366642;19;20307;-70
2023/07/07 00:41:02;;;;;;;;;;;;;;;17.48;57.41;98531.50;7373521;19;19922;-69
2023/07/07 00:43:29;;;;;;;;;;;;;;;17.47;57.32;98540.56;7372761;19;19923;-70
2023/07/07 00:45:57;;;;;;;;;;;;;;;17.28;57.27;98536.75;7372683;19;19922;-70
2023/07/07 00:48:24;;;;;;;;;;;;;;;17.32;57.90;98536.16;7370804;19;20202;-70
2023/07/07 00:50:51;;;;;;;;;;;;;;;17.50;56.80;98537.50;7371583;19;19925;-69
2023/07/07 00:53:18;;;;;;;;;;;;;;;17.45;57.83;98542.59;7368554;19;19925;-69
2023/07/07 00:55:49;;;;;;;;;;;;;;;17.39;57.56;98549.56;7369662;19;19947;-70
2023/07/07 00:58:16;;;;;;;;;;;;;;;17.38;56.83;98547.91;7373751;19;19934;-69
2023/07/07 01:00:46;;;;;;;;;;;;;;;17.34;57.21;98533.28;7368556;19;20005;-69
2023/07/07 01:03:19;;;;;;;;;;;;;;;17.48;57.95;98534.19;7375217;19;19925;-70
2023/07/07 01:05:46;;;;;;;;;;;;;;;17.34;58.20;98552.00;7365047;19;19923;-69
2023/07/07 01:08:13;;;;;;;;;;;;;;;17.19;58.45;98552.06;7367985;19;19921;-69
2023/07/07 01:10:39;;;;;;;;;;;;;;;17.16;58.77;98554.31;7364312;19;19923;-69
2023/07/07 01:13:10;;;;;;;;;;;;;;;17.23;57.74;98552.53;7372140;19;20212;-69
2023/07/07 01:15:39;;;;;;;;;;;;;;;17.35;57.65;98553.63;7368658;19;19919;-70
2023/07/07 01:18:12;;;;;;;;;;;;;;;17.30;58.11;98558.78;7368961;19;19930;-69
2023/07/07 01:21:01;;;;;;;;;;;;;;;17.29;57.95;98560.59;7370334;19;19918;-70
2023/07/07 01:23:37;;;;;;;;;;;;;;;17.30;58.67;98558.78;7370058;19;19923;-69
2023/07/07 01:26:07;;;;;;;;;;;;;;;17.39;57.24;98554.91;7367447;19;19994;-69
2023/07/07 01:28:36;;;;;;;;;;;;;;;17.32;57.09;98567.41;7369615;19;19927;-70
2023/07/07 01:31:06;;;;;;;;;;;;;;;17.23;57.23;98558.72;7372766;19;19926;-68
2023/07/07 01:33:33;;;;;;;;;;;;;;;17.02;58.13;98558.75;7371457;19;19934;-69
2023/07/07 01:36:00;;;;;;;;;;;;;;;16.98;58.64;98550.28;7370244;19;19930;-69
2023/07/07 01:38:37;;;;;;;;;;;;;;;17.07;58.48;98559.00;7370081;19;19914;-69
2023/07/07 01:41:03;;;;;;;;;;;;;;;16.95;58.88;98561.34;7366760;19;19922;-69
2023/07/07 01:43:34;;;;;;;;;;;;;;;16.65;59.12;98552.59;7365096;19;19967;-70
2023/07/07 01:46:09;;;;;;;;;;;;;;;16.56;59.91;98561.75;7370586;19;19919;-69
2023/07/07 01:48:56;;;;;;;;;;;;;;;16.61;59.67;98554.84;7372968;19;19923;-69
2023/07/07 01:51:25;;;;;;;;;;;;;;;16.29;60.60;98558.78;7369473;19;19933;-69
2023/07/07 01:53:52;;;;;;;;;;;;;;;16.75;59.51;98561.13;7378445;19;19982;-69
2023/07/07 01:56:20;;;;;;;;;;;;;;;16.72;59.28;98553.50;7383200;19;19935;-69
2023/07/07 01:58:47;;;;;;;;;;;;;;;16.49;60.62;98555.53;7374928;19;19933;-69
2023/07/07 02:01:14;;;;;;;;;;;;;;;16.52;60.30;98555.97;7374973;19;19918;-69
2023/07/07 02:03:40;;;;;;;;;;;;;;;16.77;59.49;98558.25;7380668;19;20332;-69
2023/07/07 02:06:07;;;;;;;;;;;;;;;16.79;59.12;98551.75;7377123;19;19922;-69
2023/07/07 02:08:34;;;;;;;;;;;;;;;16.84;59.06;98556.53;7377316;19;19923;-69
2023/07/07 02:11:02;;;;;;;;;;;;;;;16.87;58.98;98545.44;7376530;19;20002;-69
2023/07/07 02:13:29;;;;;;;;;;;;;;;16.65;59.57;98548.09;7378626;19;20329;-69
2023/07/07 02:15:56;;;;;;;;;;;;;;;16.18;61.28;98541.41;7375104;19;20368;-69
2023/07/07 02:18:26;;;;;;;;;;;;;;;16.08;61.58;98548.06;7375176;19;20552;-69
2023/07/07 02:20:53;;;;;;;;;;;;;;;16.40;60.50;98546.78;7377616;19;19918;-69
2023/07/07 02:23:20;;;;;;;;;;;;;;;16.28;60.64;98542.97;7359150;19;20674;-70
2023/07/07 02:25:47;;;;;;;;;;;;;;;16.40;60.21;98544.97;7367798;19;19923;-69
2023/07/07 02:28:13;;;;;;;;;;;;;;;16.46;59.96;98546.88;7375925;19;19923;-69
2023/07/07 02:30:40;;;;;;;;;;;;;;;16.37;60.02;98547.16;7367918;19;19929;-70
2023/07/07 02:33:08;;;;;;;;;;;;;;;16.19;60.69;98545.75;7368646;19;19914;-69
2023/07/07 02:35:35;;;;;;;;;;;;;;;16.28;60.44;98548.31;7361006;19;19949;-70
2023/07/07 02:38:02;;;;;;;;;;;;;;;16.11;60.52;98543.16;7371547;19;20268;-69
2023/07/07 02:40:29;;;;;;;;;;;;;;;16.02;61.00;98541.63;7371772;19;19917;-69
2023/07/07 02:42:58;;;;;;;;;;;;;;;15.97;61.16;98544.84;7376369;19;20256;-69
2023/07/07 02:45:26;;;;;;;;;;;;;;;15.93;61.51;98542.75;7375885;19;19930;-69
2023/07/07 02:47:52;;;;;;;;;;;;;;;16.04;60.93;98542.28;7371563;19;20325;-69
2023/07/07 02:50:19;;;;;;;;;;;;;;;15.93;61.18;98553.41;7371709;19;19915;-70
2023/07/07 02:52:46;;;;;;;;;;;;;;;15.94;61.56;98547.91;7377609;19;19950;-69
2023/07/07 02:55:12;;;;;;;;;;;;;;;15.93;61.71;98545.41;7374827;19;19929;-70
2023/07/07 02:57:40;;;;;;;;;;;;;;;15.66;62.96;98550.34;7369974;19;19933;-70
2023/07/07 03:00:09;;;;;;;;;;;;;;;15.61;63.07;98542.06;7375856;19;19919;-69
2023/07/07 03:02:36;;;;;;;;;;;;;;;15.88;62.21;98545.16;7373345;19;20902;-69
2023/07/07 03:05:02;;;;;;;;;;;;;;;15.74;62.75;98538.81;7370756;19;19923;-69
2023/07/07 03:07:29;;;;;;;;;;;;;;;15.74;62.38;98544.13;7365378;19;20442;-70
2023/07/07 03:09:57;;;;;;;;;;;;;;;15.63;62.59;98547.25;7375323;19;20083;-69
2023/07/07 03:12:23;;;;;;;;;;;;;;;15.83;62.56;98544.88;7376309;19;19926;-69
2023/07/07 03:14:54;;;;;;;;;;;;;;;15.67;62.52;98546.69;7372894;19;19918;-69
2023/07/07 03:17:22;;;;;;;;;;;;;;;15.57;62.71;98546.13;7376642;19;19927;-70
2023/07/07 03:19:51;;;;;;;;;;;;;;;15.54;63.02;98555.34;7374242;19;19930;-69
2023/07/07 03:22:20;;;;;;;;;;;;;;;15.41;63.44;98560.47;7369979;19;19914;-70
2023/07/07 03:24:56;;;;;;;;;;;;;;;15.78;62.40;98559.59;7370910;19;19922;-70
2023/07/07 03:27:33;;;;;;;;;;;;;;;15.82;61.89;98561.88;7374774;19;20356;-69
2023/07/07 03:30:00;;;;;;;;;;;;;;;15.34;64.32;98570.19;7374150;19;19922;-70
2023/07/07 03:32:31;;;;;;;;;;;;;;;15.28;64.60;98569.09;7375656;19;19982;-70
2023/07/07 03:35:02;;;;;;;;;;;;;;;15.35;64.38;98564.69;7374622;19;19943;-69
2023/07/07 03:37:30;;;;;;;;;;;;;;;15.38;64.59;98563.50;7371120;19;19926;-70
2023/07/07 03:39:57;;;;;;;;;;;;;;;15.57;63.17;98567.47;7370581;19;19915;-69
2023/07/07 03:42:24;;;;;;;;;;;;;;;15.60;63.00;98575.09;7377548;19;19923;-69
2023/07/07 03:44:52;;;;;;;;;;;;;;;15.55;63.06;98578.31;7376201;19;19915;-69
2023/07/07 03:47:19;;;;;;;;;;;;;;;15.65;62.57;98580.72;7376883;19;19926;-70
2023/07/07 03:49:46;;;;;;;;;;;;;;;15.61;62.81;98579.41;7373972;19;20451;-70
2023/07/07 03:52:13;;;;;;;;;;;;;;;15.24;63.94;98594.44;7376018;19;19926;-70
2023/07/07 03:54:40;;;;;;;;;;;;;;;15.30;64.27;98599.06;7372248;19;20381;-69
2023/07/07 03:57:10;;;;;;;;;;;;;;;15.53;63.96;98599.03;7369107;19;19935;-69
2023/07/07 03:59:37;;;;;;;;;;;;;;;15.68;62.67;98595.53;7373219;19;19938;-69
2023/07/07 04:02:04;;;;;;;;;;;;;;;15.64;62.89;98592.41;7368432;19;19922;-69
2023/07/07 04:04:31;;;;;;;;;;;;;;;15.74;62.27;98595.63;7370056;19;19945;-69
2023/07/07 04:06:58;;;;;;;;;;;;;;;15.78;62.23;98601.44;7372708;19;20293;-69
2023/07/07 04:09:25;;;;;;;;;;;;;;;15.92;62.21;98607.78;7376739;19;19923;-69
2023/07/07 04:11:54;;;;;;;;;;;;;;;16.06;61.56;98601.66;7374081;19;20672;-69
2023/07/07 04:14:25;;;;;;;;;;;;;;;15.92;61.58;98605.13;7371685;19;19958;-69
2023/07/07 04:16:51;;;;;;;;;;;;;;;15.92;61.97;98607.78;7369222;19;20315;-69
2023/07/07 04:19:18;;;;;;;;;;;;;;;15.88;61.95;98604.69;7373762;19;19927;-69
2023/07/07 04:21:45;;;;;;;;;;;;;;;15.89;61.77;98602.84;7372802;19;19919;-70
2023/07/07 04:24:11;;;;;;;;;;;;;;;15.90;61.63;98607.97;7370634;19;19918;-70
2023/07/07 04:26:39;;;;;;;;;;;;;;;15.98;61.95;98607.06;7368834;19;19938;-70
2023/07/07 04:29:06;;;;;;;;;;;;;;;16.10;61.96;98605.59;7372632;19;19919;-69
2023/07/07 04:31:32;;;;;;;;;;;;;;;16.28;61.87;98607.88;7371577;19;19936;-70
2023/07/07 04:33:59;;;;;;;;;;;;;;;16.41;61.32;98609.88;7371729;19;19919;-70
2023/07/07 04:36:26;;;;;;;;;;;;;;;16.46;61.08;98602.94;7374798;19;19930;-71
2023/07/07 04:38:53;;;;;;;;;;;;;;;16.55;60.23;98609.00;7367918;19;19934;-71
2023/07/07 04:41:25;;;;;;;;;;;;;;;16.65;60.53;98609.53;7369753;19;20372;-70
2023/07/07 04:43:53;;;;;;;;;;;;;;;16.84;59.63;98608.09;7371537;19;19919;-71
2023/07/07 04:46:21;;;;;;;;;;;;;;;17.16;59.04;98615.81;7369230;19;19922;-71
2023/07/07 04:48:48;;;;;;;;;;;;;;;17.25;57.79;98609.31;7369663;19;19926;-71
2023/07/07 04:51:14;;;;;;;;;;;;;;;17.19;59.17;98610.06;7374052;19;19927;-71
2023/07/07 04:53:41;;;;;;;;;;;;;;;17.31;57.87;98612.03;7366121;19;19940;-71
2023/07/07 04:56:11;;;;;;;;;;;;;;;17.31;57.55;98624.59;7370980;19;21895;-70
2023/07/07 04:58:39;;;;;;;;;;;;;;;17.07;58.53;98623.16;7364621;19;19923;-70
2023/07/07 05:01:06;;;;;;;;;;;;;;;17.04;59.56;98628.88;7367822;19;19974;-70
2023/07/07 05:03:33;;;;;;;;;;;;;;;17.17;58.89;98630.81;7358991;19;19911;-71
2023/07/07 05:06:03;;;;;;;;;;;;;;;17.22;58.51;98620.38;7366546;19;19967;-71
2023/07/07 05:08:31;;;;;;;;;;;;;;;17.31;57.86;98622.75;7367454;19;19926;-71
2023/07/07 05:10:58;;;;;;;;;;;;;;;17.30;57.59;98618.41;7370243;19;20226;-71
2023/07/07 05:13:25;;;;;;;;;;;;;;;17.45;56.76;98617.50;7373832;19;19926;-71
2023/07/07 05:16:00;;;;;;;;;;;;;;;17.62;55.72;98621.53;7363230;19;20344;-71
2023/07/07 05:18:27;;;;;;;;;;;;;;;17.45;57.61;98625.53;7369892;19;19921;-71
2023/07/07 05:20:54;;;;;;;;;;;;;;;17.85;56.15;98625.81;7361589;19;19918;-71
2023/07/07 05:23:21;;;;;;;;;;;;;;;18.01;55.40;98619.34;7358910;19;19971;-71
2023/07/07 05:25:47;;;;;;;;;;;;;;;18.18;54.25;98623.34;7365865;19;19918;-71
2023/07/07 05:28:14;;;;;;;;;;;;;;;18.22;54.50;98619.25;7364968;19;19919;-71
2023/07/07 05:30:41;;;;;;;;;;;;;;;18.34;53.00;98623.00;7369906;19;19926;-71
2023/07/07 05:33:08;;;;;;;;;;;;;;;18.19;53.92;98617.81;7372989;19;19950;-71
2023/07/07 05:35:34;;;;;;;;;;;;;;;18.56;52.40;98618.38;7372452;19;19922;-71
2023/07/07 05:38:01;;;;;;;;;;;;;;;18.71;52.13;98614.69;7373577;19;19915;-70
2023/07/07 05:40:28;;;;;;;;;;;;;;;18.92;51.50;98616.41;7373943;19;20370;-71
2023/07/07 05:42:54;;;;;;;;;;;;;;;19.03;52.35;98623.84;7380200;19;20370;-70
2023/07/07 05:45:21;;;;;;;;;;;;;;;19.08;52.17;98626.75;7379303;19;19922;-71
2023/07/07 05:47:48;;;;;;;;;;;;;;;19.26;50.67;98618.13;7376118;19;19922;-71
2023/07/07 05:50:15;;;;;;;;;;;;;;;19.48;51.12;98616.03;7379373;19;19927;-71
2023/07/07 05:52:41;;;;;;;;;;;;;;;19.59;50.39;98622.63;7377069;19;19919;-71
2023/07/07 05:55:13;;;;;;;;;;;;;;;19.72;50.02;98622.66;7374947;19;19926;-71
2023/07/07 05:57:40;;;;;;;;;;;;;;;19.85;49.87;98628.03;7376443;19;19923;-71
2023/07/07 06:00:08;;;;;;;;;;;;;;;20.00;48.09;98627.78;7379346;19;20288;-70
2023/07/07 06:02:38;;;;;;;;;;;;;;;19.82;47.94;98622.25;7378101;19;20350;-71
2023/07/07 06:05:05;;;;;;;;;;;;;;;20.17;49.33;98622.78;7380168;19;20630;-70
2023/07/07 06:07:31;;;;;;;;;;;;;;;20.25;48.50;98622.56;7379127;19;19929;-70
2023/07/07 06:09:58;;;;;;;;;;;;;;;20.38;48.75;98619.81;7375926;19;19929;-71
2023/07/07 06:12:25;;;;;;;;;;;;;;;20.61;46.70;98622.00;7377611;19;19926;-71
2023/07/07 06:14:51;;;;;;;;;;;;;;;20.78;48.05;98625.03;7378072;19;19932;-71
2023/07/07 06:17:18;;;;;;;;;;;;;;;20.97;46.78;98623.25;7378777;19;19926;-70
2023/07/07 06:19:45;;;;;;;;;;;;;;;20.93;47.26;98616.69;7378245;19;19918;-71
2023/07/07 06:22:11;;;;;;;;;;;;;;;21.15;46.84;98621.69;7378579;19;19911;-71
2023/07/07 06:24:38;;;;;;;;;;;;;;;21.42;44.24;98622.34;7379013;19;19914;-70
2023/07/07 06:27:05;;;;;;;;;;;;;;;21.57;43.29;98620.16;7376147;19;19922;-71
2023/07/07 06:29:35;;;;;;;;;;;;;;;21.75;42.67;98627.44;7377540;19;19921;-70
2023/07/07 06:32:02;;;;;;;;;;;;;;;21.86;42.11;98626.72;7376834;19;19934;-71
2023/07/07 06:34:28;;;;;;;;;;;;;;;21.92;43.34;98627.69;7378445;19;19926;-71
2023/07/07 06:36:55;;;;;;;;;;;;;;;22.11;43.23;98634.72;7377136;19;19922;-71
2023/07/07 06:39:21;;;;;;;;;;;;;;;22.21;43.36;98634.25;7372884;19;19922;-70
2023/07/07 06:41:51;;;;;;;;;;;;;;;22.28;42.94;98631.50;7370627;19;20271;-71
2023/07/07 06:44:21;;;;;;;;;;;;;;;22.46;42.42;98631.47;7372280;19;19918;-71
2023/07/07 06:46:48;;;;;;;;;;;;;;;22.58;42.09;98626.94;7374764;19;19948;-70
2023/07/07 06:49:15;;;;;;;;;;;;;;;22.68;42.10;98637.19;7377862;19;20299;-71
2023/07/07 06:51:41;;;;;;;;;;;;;;;22.75;43.42;98631.72;7375100;19;20571;-70
2023/07/07 06:54:08;;;;;;;;;;;;;;;22.77;42.31;98635.81;7377999;19;19943;-70
2023/07/07 06:56:35;;;;;;;;;;;;;;;22.59;41.95;98635.84;7376818;19;19911;-71
2023/07/07 06:59:02;;;;;;;;;;;;;;;23.00;41.17;98632.44;7371770;19;19919;-70
2023/07/07 07:01:29;;;;;;;;;;;;;;;23.07;42.53;98631.53;7372523;19;19938;-71
2023/07/07 07:04:00;;;;;;;;;;;;;;;23.13;43.17;98636.00;7376016;19;20242;-71
2023/07/07 07:06:27;;;;;;;;;;;;;;;23.38;40.56;98641.19;7377906;19;20257;-70
2023/07/07 07:08:53;;;;;;;;;;;;;;;23.52;41.40;98634.53;7370393;19;20368;-70
2023/07/07 07:11:20;;;;;;;;;;;;;;;23.67;40.61;98639.47;7373992;19;19923;-71
2023/07/07 07:13:47;;;;;;;;;;;;;;;23.77;40.60;98633.53;7375499;19;19929;-70
2023/07/07 07:16:14;;;;;;;;;;;;;;;23.76;42.02;98637.28;7371700;19;19921;-70
2023/07/07 07:18:40;;;;;;;;;;;;;;;23.96;38.86;98632.34;7360084;19;19914;-71
2023/07/07 07:21:07;;;;;;;;;;;;;;;24.29;39.72;98637.13;7370726;19;19923;-71
2023/07/07 07:23:34;;;;;;;;;;;;;;;24.26;40.22;98648.41;7377452;19;19914;-71
2023/07/07 07:26:01;;;;;;;;;;;;;;;24.21;40.32;98644.78;7366408;19;19918;-70
2023/07/07 07:28:28;;;;;;;;;;;;;;;24.35;40.79;98639.91;7371606;19;19922;-70
2023/07/07 07:30:55;;;;;;;;;;;;;;;24.43;38.67;98645.78;7368715;19;20299;-70
2023/07/07 07:33:22;;;;;;;;;;;;;;;24.44;39.71;98644.75;7370213;19;20336;-70
2023/07/07 07:35:49;;;;;;;;;;;;;;;24.74;39.31;98647.25;7361461;19;19915;-70
2023/07/07 07:38:16;;;;;;;;;;;;;;;24.73;40.54;98636.69;7370793;19;19926;-70
2023/07/07 07:40:43;;;;;;;;;;;;;;;24.71;41.01;98644.22;7363064;19;20407;-70
2023/07/07 07:43:10;;;;;;;;;;;;;;;24.98;38.13;98644.44;7371200;19;20376;-70
2023/07/07 07:45:37;;;;;;;;;;;;;;;25.07;40.06;98632.16;7371041;19;19919;-70
2023/07/07 07:48:04;;;;;;;;;;;;;;;25.23;38.86;98637.88;7373753;19;19963;-70
2023/07/07 07:50:33;;;;;;;;;;;;;;;25.23;39.08;98636.00;7367289;19;19960;-70
2023/07/07 07:53:00;;;;;;;;;;;;;;;25.31;40.13;98637.47;7370605;19;20309;-70
2023/07/07 07:55:26;;;;;;;;;;;;;;;25.21;40.42;98640.00;7370062;19;19918;-70
2023/07/07 07:57:53;;;;;;;;;;;;;;;25.36;37.91;98635.69;7369978;19;19930;-70
2023/07/07 08:00:20;;;;;;;;;;;;;;;25.47;38.60;98631.25;7370953;19;19927;-71
2023/07/07 08:02:48;;;;;;;;;;;;;;;25.59;38.83;98639.28;7362218;19;19987;-70
2023/07/07 08:05:15;;;;;;;;;;;;;;;25.81;38.42;98632.06;7373043;19;19931;-70
2023/07/07 08:07:41;;;;;;;;;;;;;;;25.78;37.37;98632.56;7365042;19;19918;-70
2023/07/07 08:10:08;;;;;;;;;;;;;;;25.94;38.66;98640.94;7374943;19;19919;-70
2023/07/07 08:12:35;;;;;;;;;;;;;;;26.10;37.08;98634.66;7375899;19;19978;-71
2023/07/07 08:15:02;;;;;;;;;;;;;;;26.12;36.85;98632.53;7375076;19;19923;-70
2023/07/07 08:17:29;;;;;;;;;;;;;;;26.24;40.15;98630.50;7373019;19;19921;-70
2023/07/07 08:19:56;;;;;;;;;;;;;;;26.46;38.51;98638.66;7371523;19;19935;-70
2023/07/07 08:22:23;;;;;;;;;;;;;;;26.64;38.38;98629.38;7367098;19;19918;-70
2023/07/07 08:24:51;;;;;;;;;;;;;;;26.79;37.31;98626.03;7367811;19;19922;-70
2023/07/07 08:27:19;;;;;;;;;;;;;;;27.05;36.40;98626.28;7370121;19;19919;-70
2023/07/07 08:29:49;;;;;;;;;;;;;;;27.36;37.20;98630.16;7369872;19;19992;-70
2023/07/07 08:32:18;;;;;;;;;;;;;;;27.41;35.10;98627.47;7371266;19;19925;-70
2023/07/07 08:34:45;;;;;;;;;;;;;;;27.42;36.58;98633.72;7358333;19;19947;-70
2023/07/07 08:37:20;;;;;;;;;;;;;;;27.30;37.12;98631.16;7371237;19;19998;-70
2023/07/07 08:39:47;;;;;;;;;;;;;;;27.30;34.92;98629.25;7370943;19;19925;-70
2023/07/07 08:42:22;;;;;;;;;;;;;;;27.60;35.50;98625.16;7366881;19;19958;-70
2023/07/07 08:44:49;;;;;;;;;;;;;;;27.99;35.37;98627.63;7364300;19;19945;-70
2023/07/07 08:47:15;;;;;;;;;;;;;;;28.10;35.37;98629.31;7367114;19;19918;-70
2023/07/07 08:49:45;;;;;;;;;;;;;;;28.12;35.14;98631.75;7371714;19;19922;-70
2023/07/07 08:52:28;;;;;;;;;;;;;;;28.25;35.66;98620.41;7367653;19;19919;-70
2023/07/07 08:54:58;;;;;;;;;;;;;;;28.41;34.42;98627.56;7370654;19;20356;-70
2023/07/07 08:57:27;;;;;;;;;;;;;;;28.49;34.22;98618.09;7366542;19;19918;-69
2023/07/07 09:00:03;;;;;;;;;;;;;;;28.58;35.87;98624.66;7369240;19;19923;-69
2023/07/07 09:02:48;;;;;;;;;;;;;;;28.83;33.18;98621.19;7373547;19;19935;-69
2023/07/07 09:05:33;;;;;;;;;;;;;;;28.95;33.94;98617.41;7382678;19;19930;-69
2023/07/07 09:08:19;;;;;;;;;;;;;;;29.24;33.87;98618.56;7377068;19;19918;-69
2023/07/07 09:11:00;;;;;;;;;;;;;;;29.14;32.95;98612.28;7378980;19;19933;-71
2023/07/07 09:13:28;;;;;;;;;;;;;;;29.37;33.37;98608.22;7377115;19;20503;-69
2023/07/07 09:16:00;;;;;;;;;;;;;;;29.65;31.14;98613.13;7373122;19;19919;-70
2023/07/07 09:18:39;;;;;;;;;;;;;;;29.79;31.80;98604.38;7374024;19;19926;-70
2023/07/07 09:21:19;;;;;;;;;;;;;;;29.78;30.43;98610.91;7380462;19;20264;-69
2023/07/07 09:23:46;;;;;;;;;;;;;;;30.27;29.75;98607.53;7376494;19;19943;-69
2023/07/07 09:26:18;;;;;;;;;;;;;;;30.21;29.14;98609.44;7380793;19;19923;-70
2023/07/07 09:28:45;;;;;;;;;;;;;;;30.05;31.46;98603.22;7374316;19;19918;-69
2023/07/07 09:31:21;;;;;;;;;;;;;;;30.46;28.97;98596.81;7372482;19;20427;-70
2023/07/07 09:33:49;;;;;;;;;;;;;;;30.26;29.55;98593.09;7380421;19;19946;-70
2023/07/07 09:36:23;;;;;;;;;;;;;;;30.53;28.56;98592.69;7380581;19;19915;-70
2023/07/07 09:38:53;;;;;;;;;;;;;;;30.45;26.93;98595.19;7374705;19;20235;-71
2023/07/07 09:41:22;;;;;;;;;;;;;;;30.66;28.05;98591.25;7382074;19;19921;-71
2023/07/07 09:44:04;;;;;;;;;;;;;;;30.64;24.81;98587.97;7373850;19;19922;-71
2023/07/07 09:46:31;;;;;;;;;;;;;;;31.16;26.57;98580.28;7376861;19;20696;-70
2023/07/07 09:49:09;;;;;;;;;;;;;;;30.85;26.76;98577.78;7365978;19;19964;-70
2023/07/07 09:51:36;;;;;;;;;;;;;;;31.06;24.19;98576.53;7377259;19;19923;-69
2023/07/07 09:54:03;;;;;;;;;;;;;;;31.09;25.82;98579.78;7373280;19;19922;-69
2023/07/07 09:56:32;;;;;;;;;;;;;;;30.94;24.31;98569.78;7375253;19;20657;-71
2023/07/07 09:59:02;;;;;;;;;;;;;;;31.20;24.12;98567.66;7370122;19;19922;-69
2023/07/07 10:01:31;;;;;;;;;;;;;;;31.18;25.65;98570.69;7371424;19;19923;-69
2023/07/07 10:03:57;;;;;;;;;;;;;;;31.14;24.83;98571.56;7364644;19;19929;-69
2023/07/07 10:06:27;;;;;;;;;;;;;;;31.06;26.53;98572.97;7373771;19;19933;-69
2023/07/07 10:08:53;;;;;;;;;;;;;;;31.13;25.20;98567.19;7370639;19;19911;-69
2023/07/07 10:11:26;;;;;;;;;;;;;;;30.99;27.95;98567.00;7376026;19;19922;-69
2023/07/07 10:13:56;;;;;;;;;;;;;;;30.72;26.90;98559.25;7372837;19;19919;-70
2023/07/07 10:16:29;;;;;;;;;;;;;;;30.81;25.67;98561.16;7374693;19;19922;-69
2023/07/07 10:18:56;;;;;;;;;;;;;;;30.78;25.32;98556.22;7372033;19;20293;-70
2023/07/07 10:21:23;;;;;;;;;;;;;;;30.50;27.80;98565.94;7369480;19;20285;-69
2023/07/07 10:23:50;;;;;;;;;;;;;;;30.76;26.24;98552.94;7373357;19;19923;-69
2023/07/07 10:26:17;;;;;;;;;;;;;;;30.75;26.71;98556.75;7377294;19;19919;-69
2023/07/07 10:28:44;;;;;;;;;;;;;;;30.91;25.61;98546.56;7370689;19;19911;-70
2023/07/07 10:31:11;;;;;;;;;;;;;;;31.14;24.25;98552.44;7374258;19;19923;-69
2023/07/07 10:33:39;;;;;;;;;;;;;;;30.56;27.88;98540.22;7377069;19;19931;-70
2023/07/07 10:36:18;;;;;;;;;;;;;;;30.49;26.38;98539.75;7373123;19;19911;-69
2023/07/07 10:38:45;;;;;;;;;;;;;;;30.75;26.64;98536.84;7365058;19;19930;-70
2023/07/07 10:41:22;;;;;;;;;;;;;;;30.78;25.93;98548.03;7374176;19;19983;-71
2023/07/07 10:43:49;;;;;;;;;;;;;;;30.72;25.47;98540.13;7370526;19;19944;-71
2023/07/07 10:46:15;;;;;;;;;;;;;;;30.95;26.98;98544.91;7375072;19;19986;-69
2023/07/07 10:48:46;;;;;;;;;;;;;;;30.92;26.47;98542.75;7370663;19;20553;-70
2023/07/07 10:51:16;;;;;;;;;;;;;;;31.16;26.08;98544.75;7373456;19;19911;-69
2023/07/07 10:53:52;;;;;;;;;;;;;;;30.97;26.21;98545.47;7366104;19;19934;-70
2023/07/07 10:56:29;;;;;;;;;;;;;;;30.64;26.57;98547.00;7369007;19;19915;-71
2023/07/07 10:58:59;;;;;;;;;;;;;;;30.73;24.48;98541.75;7369416;19;20256;-71
2023/07/07 11:01:32;;;;;;;;;;;;;;;30.73;25.11;98539.88;7375560;19;20001;-70
2023/07/07 11:04:18;;;;;;;;;;;;;;;30.87;25.90;98544.72;7371035;19;19930;-71
2023/07/07 11:07:05;;;;;;;;;;;;;;;30.74;24.04;98538.75;7368993;19;20352;-73
2023/07/07 11:10:06;;;;;;;;;;;;;;;30.82;25.56;98545.56;7367382;19;20326;-70
2023/07/07 11:12:35;;;;;;;;;;;;;;;30.87;25.62;98539.25;7363397;19;19945;-72
2023/07/07 11:15:11;;;;;;;;;;;;;;;30.70;25.17;98540.44;7375464;19;19921;-70
2023/07/07 11:17:41;;;;;;;;;;;;;;;30.99;23.42;98528.75;7375933;19;19925;-70
2023/07/07 11:20:23;;;;;;;;;;;;;;;30.95;22.51;98531.25;7371160;19;19919;-71
2023/07/07 11:22:56;;;;;;;;;;;;;;;30.98;23.00;98521.69;7369732;19;20561;-72
2023/07/07 11:25:46;;;;;;;;;;;;;;;31.17;24.36;98521.78;7370369;19;19987;-70
2023/07/07 11:28:32;;;;;;;;;;;;;;;30.91;22.74;98535.66;7367934;19;19930;-70
2023/07/07 11:31:22;;;;;;;;;;;;;;;30.69;25.55;98527.88;7373643;19;20546;-69
2023/07/07 11:33:55;;;;;;;;;;;;;;;30.59;25.61;98527.94;7367500;19;19946;-70
2023/07/07 11:36:25;;;;;;;;;;;;;;;30.51;24.10;98531.25;7370164;19;20268;-70
2023/07/07 11:39:03;;;;;;;;;;;;;;;30.47;24.99;98522.03;7370311;19;19922;-69
2023/07/07 11:41:30;;;;;;;;;;;;;;;30.30;25.37;98533.28;7371638;19;19926;-70
2023/07/07 11:44:06;;;;;;;;;;;;;;;30.60;24.29;98521.38;7370972;19;19934;-69
2023/07/07 11:46:32;;;;;;;;;;;;;;;30.48;26.13;98532.66;7370011;19;20021;-71
2023/07/07 11:48:59;;;;;;;;;;;;;;;30.52;25.13;98524.72;7362155;19;19930;-70
2023/07/07 11:51:31;;;;;;;;;;;;;;;30.65;26.22;98520.50;7370840;19;19919;-70
2023/07/07 11:54:04;;;;;;;;;;;;;;;30.79;24.25;98514.13;7368903;19;20791;-69
2023/07/07 11:56:46;;;;;;;;;;;;;;;30.61;27.26;98515.63;7369163;19;19915;-69
2023/07/07 11:59:33;;;;;;;;;;;;;;;30.75;24.79;98517.72;7366484;19;19919;-70
2023/07/07 12:02:00;;;;;;;;;;;;;;;30.77;25.11;98513.59;7360043;19;19915;-69
2023/07/07 12:04:28;;;;;;;;;;;;;;;30.78;24.86;98514.41;7372438;19;19919;-69
2023/07/07 12:07:18;;;;;;;;;;;;;;;30.71;24.24;98512.03;7369924;19;19935;-69
2023/07/07 12:10:11;;;;;;;;;;;;;;;30.81;24.27;98511.97;7371880;19;19922;-69
2023/07/07 12:12:38;;;;;;;;;;;;;;;30.91;24.98;98497.41;7373519;19;19929;-70
2023/07/07 12:15:12;;;;;;;;;;;;;;;31.02;23.38;98500.91;7369487;19;20010;-71
2023/07/07 12:17:39;;;;;;;;;;;;;;;30.95;23.28;98493.00;7368404;19;20366;-70
2023/07/07 12:20:13;;;;;;;;;;;;;;;31.11;22.39;98492.88;7367670;19;19942;-70
2023/07/07 12:22:40;;;;;;;;;;;;;;;31.21;22.51;98487.31;7364878;19;19954;-70
2023/07/07 12:25:13;;;;;;;;;;;;;;;31.27;23.13;98492.44;7370190;19;19925;-70
2023/07/07 12:27:40;;;;;;;;;;;;;;;31.22;23.06;98499.88;7369091;19;19919;-70
2023/07/07 12:30:11;;;;;;;;;;;;;;;31.09;22.68;98493.16;7369017;19;19915;-71
2023/07/07 12:32:38;;;;;;;;;;;;;;;31.27;22.71;98491.63;7367422;19;20108;-70
2023/07/07 12:35:07;;;;;;;;;;;;;;;31.42;22.12;98486.03;7366581;19;22043;-70
2023/07/07 12:37:34;;;;;;;;;;;;;;;31.29;22.56;98481.22;7367604;19;19927;-70
2023/07/07 12:40:21;;;;;;;;;;;;;;;31.34;19.58;98486.66;7370232;19;19937;-70
2023/07/07 12:43:08;;;;;;;;;;;;;;;31.22;23.60;98478.81;7371287;19;19921;-70
2023/07/07 12:45:37;;;;;;;;;;;;;;;31.08;22.41;98485.25;7375198;19;19934;-70
2023/07/07 12:48:05;;;;;;;;;;;;;;;30.92;23.49;98484.59;7368774;19;19922;-70
2023/07/07 12:50:36;;;;;;;;;;;;;;;30.76;23.71;98487.41;7370568;19;19918;-70
2023/07/07 12:53:10;;;;;;;;;;;;;;;30.78;23.00;98471.56;7369920;19;19922;-70
2023/07/07 12:55:38;;;;;;;;;;;;;;;30.88;22.48;98473.41;7370768;19;19948;-70
2023/07/07 12:58:04;;;;;;;;;;;;;;;30.91;22.72;98481.00;7367562;19;20336;-70
2023/07/07 13:00:32;;;;;;;;;;;;;;;30.91;23.35;98472.81;7373869;19;19933;-69